Airport Name : Benson

Other Name : Benson

ICAO : EGUB

IATA : BEX

FAA :

Latitude : 51.616389

Longitude : -1.095833

Country : United Kingdom

Local Date and Time : 28 Feb 2021 15:47

 

TAF (Terminal Aerodrome Forecast)

 

METAR (METeorological Aerodrome Report)

EGUB 281450Z AUTO 05010KT 9999 // NCD 12/03 Q1034

EGUB 281350Z AUTO 03009KT 9999 // NCD 12/05 Q1035

EGUB 281250Z AUTO 02008KT 9999 // NCD 11/05 Q1036

EGUB 281150Z AUTO 01008KT 9999 // NCD 09/05 Q1037

To Charter a Jet Click here.